Waukegan, Illinois
Current Conditions -  °F | °C
As of 12:55 AM on Wednesday 22 Oct 2014 (Local Time) from KUGN Reporting Station
Few Clouds Few Clouds  
Wind Chill: 35°   Ceiling: Unl
Heat Index: 39°   Visibility: 10mi
Dew Point: 37°   Wind: 6mph
Humidity: 93%   Direction: 300°WNW
Pressure: 30.26"   Gusts: NA
Location:  42.36°N, 87.83°W
Report Text: KUGN 220555Z 30005KT 10SM FEW026 04/03 A3026 RMK AO2 SLP254 T00390028 10078 20033 400940033 53001
Loading
Personal Weather Stations






























Interactive Weather Map
Tropical Storm Tracking
New forecast layout! Learn more

10-Day Weather Forecast

Advertisements
Track Severe Weather on mobile